createdAt,value
2018-06-11T00:00:55.287Z,14.87
2018-06-11T00:03:23.742Z,15.17
2018-06-11T00:05:52.007Z,15.03
2018-06-11T00:08:20.317Z,15.37
2018-06-11T00:10:48.542Z,15.60
2018-06-11T00:13:16.881Z,16.70
2018-06-11T00:15:45.222Z,15.73
2018-06-11T00:18:13.487Z,16.80
2018-06-11T00:20:41.737Z,15.90
2018-06-11T00:23:09.974Z,16.50
2018-06-11T00:25:38.237Z,16.93
2018-06-11T00:28:07.235Z,15.90
2018-06-11T00:30:35.562Z,15.67
2018-06-11T00:33:03.832Z,16.90
2018-06-11T00:35:32.145Z,14.57
2018-06-11T00:38:00.418Z,16.80
2018-06-11T00:40:29.409Z,16.83
2018-06-11T00:42:57.610Z,15.63
2018-06-11T00:45:25.827Z,15.63
2018-06-11T00:47:54.061Z,15.87
2018-06-11T00:50:22.992Z,15.60
2018-06-11T00:52:51.445Z,16.13
2018-06-11T00:55:19.613Z,14.73
2018-06-11T00:57:47.830Z,15.87
2018-06-11T01:00:16.146Z,15.33
2018-06-11T01:02:44.409Z,15.40
2018-06-11T01:05:14.543Z,16.57
2018-06-11T01:07:42.748Z,16.33
2018-06-11T01:10:11.099Z,16.67
2018-06-11T01:12:39.350Z,17.23
2018-06-11T01:15:07.705Z,17.00
2018-06-11T01:17:36.167Z,15.67
2018-06-11T01:20:04.536Z,16.17
2018-06-11T01:22:32.790Z,16.93
2018-06-11T01:25:01.571Z,17.27
2018-06-11T01:27:30.008Z,17.00
2018-06-11T01:29:58.263Z,18.00
2018-06-11T01:32:26.646Z,18.30
2018-06-11T01:34:54.891Z,17.07
2018-06-11T01:37:23.828Z,17.20
2018-06-11T01:39:52.097Z,16.77
2018-06-11T01:42:20.361Z,16.50
2018-06-11T01:44:48.603Z,15.30
2018-06-11T01:47:17.019Z,16.70
2018-06-11T01:49:45.540Z,16.33
2018-06-11T01:52:13.781Z,18.63
2018-06-11T01:54:42.131Z,17.20
2018-06-11T01:57:10.417Z,18.23
2018-06-11T01:59:38.989Z,18.37
2018-06-11T02:02:07.299Z,18.53
2018-06-11T02:04:35.519Z,18.17
2018-06-11T02:07:03.826Z,19.33
2018-06-11T02:09:33.339Z,17.90
2018-06-11T02:12:01.749Z,17.70
2018-06-11T02:14:30.134Z,18.77
2018-06-11T02:16:58.366Z,19.50
2018-06-11T02:19:26.602Z,18.10
2018-06-11T02:21:54.981Z,20.37
2018-06-11T02:24:23.470Z,19.13
2018-06-11T02:26:51.734Z,17.13
2018-06-11T02:29:19.959Z,17.50
2018-06-11T02:31:48.192Z,17.37
2018-06-11T02:34:17.183Z,17.30
2018-06-11T02:36:46.027Z,17.20
2018-06-11T02:39:14.455Z,17.77
2018-06-11T02:41:42.700Z,18.53
2018-06-11T02:44:10.921Z,18.10
2018-06-11T02:46:39.149Z,17.77
2018-06-11T02:49:07.396Z,17.10
2018-06-11T02:51:35.634Z,16.87
2018-06-11T02:54:03.882Z,17.90
2018-06-11T02:56:32.120Z,17.37
2018-06-11T02:59:00.448Z,18.30
2018-06-11T03:01:28.708Z,20.60
2018-06-11T03:03:56.920Z,20.60
2018-06-11T03:06:25.198Z,20.23
2018-06-11T03:08:53.534Z,20.30
2018-06-11T03:11:21.976Z,20.43
2018-06-11T03:13:49.955Z,19.97
2018-06-11T03:16:18.199Z,20.33
2018-06-11T03:18:46.526Z,18.57
2018-06-11T03:21:15.134Z,19.70
2018-06-11T03:23:43.427Z,18.80
2018-06-11T03:26:11.742Z,19.23
2018-06-11T03:28:39.971Z,19.07
2018-06-11T03:31:09.031Z,18.97
2018-06-11T03:33:37.358Z,18.63
2018-06-11T03:36:05.729Z,17.47
2018-06-11T03:38:33.958Z,18.93
2018-06-11T03:41:02.219Z,20.93
2018-06-11T03:43:30.715Z,20.73
2018-06-11T03:45:58.962Z,20.00
2018-06-11T03:48:27.236Z,19.47
2018-06-11T03:50:55.254Z,18.87
2018-06-11T03:53:24.187Z,17.47
2018-06-11T03:55:52.690Z,19.27
2018-06-11T03:58:20.954Z,18.67
2018-06-11T04:00:49.221Z,20.13
2018-06-11T04:03:17.436Z,19.97
2018-06-11T04:05:45.935Z,20.73
2018-06-11T04:08:14.270Z,20.87
2018-06-11T04:10:42.607Z,21.47
2018-06-11T04:13:11.075Z,21.07
2018-06-11T04:15:39.634Z,22.23
2018-06-11T04:18:08.523Z,21.70
2018-06-11T04:20:37.536Z,22.13
2018-06-11T04:23:05.859Z,23.30
2018-06-11T04:25:34.102Z,22.63
2018-06-11T04:28:02.383Z,22.03
2018-06-11T04:30:30.910Z,22.63
2018-06-11T04:32:59.869Z,22.60
2018-06-11T04:35:28.099Z,24.33
2018-06-11T04:37:56.366Z,24.03
2018-06-11T04:40:24.639Z,23.67
2018-06-11T04:42:53.195Z,24.60
2018-06-11T04:45:22.708Z,22.63
2018-06-11T04:47:50.978Z,23.17
2018-06-11T04:50:19.271Z,22.50
2018-06-11T04:52:47.634Z,22.57
2018-06-11T04:55:16.110Z,24.23
2018-06-11T04:57:44.551Z,23.03
2018-06-11T05:00:12.798Z,23.50
2018-06-11T05:02:41.074Z,23.57
2018-06-11T05:05:09.366Z,23.47
2018-06-11T05:07:37.782Z,21.87
2018-06-11T05:10:06.078Z,23.60
2018-06-11T05:12:34.322Z,22.20
2018-06-11T05:15:02.588Z,22.10
2018-06-11T05:17:30.954Z,21.53
2018-06-11T05:19:59.322Z,21.20
2018-06-11T05:22:27.644Z,21.53
2018-06-11T05:24:55.884Z,21.50
2018-06-11T05:27:24.310Z,20.77
2018-06-11T05:29:52.704Z,21.63
2018-06-11T05:32:21.525Z,20.63
2018-06-11T05:34:49.909Z,21.20
2018-06-11T05:37:18.106Z,24.13
2018-06-11T05:39:46.543Z,24.73
2018-06-11T05:42:14.901Z,25.43
2018-06-11T05:44:43.158Z,24.50
2018-06-11T05:47:11.443Z,24.13
2018-06-11T05:49:39.670Z,24.37
2018-06-11T05:52:07.915Z,22.30
2018-06-11T05:54:36.820Z,22.33
2018-06-11T05:57:05.144Z,23.87
2018-06-11T05:59:33.418Z,23.70
2018-06-11T06:02:02.596Z,23.40
2018-06-11T06:04:31.445Z,22.93
2018-06-11T06:06:59.826Z,23.10
2018-06-11T06:09:28.066Z,22.47
2018-06-11T06:11:56.295Z,23.00
2018-06-11T06:14:24.572Z,24.33
2018-06-11T06:16:52.951Z,22.17
2018-06-11T06:19:21.176Z,21.17
2018-06-11T06:21:49.387Z,20.93
2018-06-11T06:24:18.031Z,21.33
2018-06-11T06:26:46.373Z,20.50
2018-06-11T06:29:14.709Z,21.47
2018-06-11T06:31:42.943Z,21.13
2018-06-11T06:34:11.208Z,19.90
2018-06-11T06:36:39.418Z,18.93
2018-06-11T06:39:08.698Z,21.17
2018-06-11T06:41:37.243Z,20.43
2018-06-11T06:44:05.622Z,21.03
2018-06-11T06:46:33.895Z,20.97
2018-06-11T06:49:02.128Z,18.53
2018-06-11T06:51:30.612Z,19.13
2018-06-11T06:53:58.839Z,20.10
2018-06-11T06:56:27.052Z,22.13
2018-06-11T06:58:55.283Z,19.27
2018-06-11T07:01:23.696Z,17.87
2018-06-11T07:03:52.679Z,18.20
2018-06-11T07:06:20.918Z,18.13
2018-06-11T07:08:49.150Z,18.30
2018-06-11T07:11:17.403Z,17.30
2018-06-11T07:13:45.810Z,18.87
2018-06-11T07:16:14.202Z,17.63
2018-06-11T07:18:42.483Z,16.33
2018-06-11T07:21:10.718Z,14.77
2018-06-11T07:23:40.023Z,15.10
2018-06-11T07:26:08.374Z,15.17
2018-06-11T07:28:37.299Z,14.97
2018-06-11T07:31:05.528Z,14.70
2018-06-11T07:33:33.749Z,15.47
2018-06-11T07:36:01.986Z,15.80
2018-06-11T07:38:30.402Z,14.27
2018-06-11T07:40:58.636Z,15.43
2018-06-11T07:43:26.856Z,14.73
2018-06-11T07:45:55.111Z,16.50
2018-06-11T07:48:23.919Z,14.83
2018-06-11T07:50:53.077Z,15.50
2018-06-11T07:53:21.275Z,14.20
2018-06-11T07:55:49.499Z,15.00
2018-06-11T07:58:17.723Z,14.07
2018-06-11T08:00:46.082Z,14.23
2018-06-11T08:03:14.362Z,13.73
2018-06-11T08:05:42.573Z,12.90
2018-06-11T08:08:10.803Z,13.13
2018-06-11T08:10:39.130Z,12.07
2018-06-11T08:13:07.464Z,13.20
2018-06-11T08:15:35.683Z,12.60
2018-06-11T08:18:03.954Z,11.80
2018-06-11T08:20:32.190Z,11.57
2018-06-11T08:23:00.516Z,11.40
2018-06-11T08:25:29.020Z,11.80
2018-06-11T08:27:57.230Z,11.40
2018-06-11T08:30:25.451Z,11.00
2018-06-11T08:32:53.806Z,10.33
2018-06-11T08:35:22.632Z,9.73
2018-06-11T08:37:50.874Z,9.70
2018-06-11T08:40:19.098Z,8.80
2018-06-11T08:42:47.337Z,9.30
2018-06-11T08:45:15.677Z,9.47
2018-06-11T08:47:43.937Z,8.73
2018-06-11T08:50:12.233Z,7.87
2018-06-11T08:52:40.627Z,7.60
2018-06-11T08:55:09.551Z,7.40
2018-06-11T08:57:37.935Z,8.03
2018-06-11T09:00:06.838Z,7.70
2018-06-11T09:02:34.826Z,7.80
2018-06-11T09:05:03.041Z,7.17
2018-06-11T09:07:31.303Z,6.90
2018-06-11T09:09:59.584Z,8.07
2018-06-11T09:12:27.849Z,8.47
2018-06-11T09:14:56.055Z,8.47
2018-06-11T09:17:24.303Z,8.67
2018-06-11T09:19:52.519Z,8.70
2018-06-11T09:22:20.779Z,8.47
2018-06-11T09:24:49.023Z,8.10
2018-06-11T09:27:17.251Z,8.23
2018-06-11T09:29:46.515Z,8.07
2018-06-11T09:32:15.516Z,7.83
2018-06-11T09:34:43.769Z,7.23
2018-06-11T09:37:11.991Z,7.23
2018-06-11T09:39:40.211Z,7.60
2018-06-11T09:42:09.480Z,7.90
2018-06-11T09:44:37.955Z,7.50
2018-06-11T09:47:06.210Z,8.73
2018-06-11T09:49:34.474Z,8.80
2018-06-11T09:52:02.735Z,8.57
2018-06-11T09:54:31.088Z,8.03
2018-06-11T09:56:59.339Z,8.27
2018-06-11T09:59:27.580Z,7.73
2018-06-11T10:01:55.819Z,7.90
2018-06-11T10:04:24.168Z,7.63
2018-06-11T10:06:52.469Z,7.70
2018-06-11T10:09:20.712Z,7.80
2018-06-11T10:11:48.995Z,7.37
2018-06-11T10:14:17.280Z,7.63
2018-06-11T10:16:46.088Z,8.40
2018-06-11T10:19:15.643Z,8.47
2018-06-11T10:21:43.900Z,7.83
2018-06-11T10:24:12.122Z,8.23
2018-06-11T10:26:40.353Z,7.00
2018-06-11T10:29:09.131Z,7.27
2018-06-11T10:31:37.455Z,7.60
2018-06-11T10:34:05.671Z,7.17
2018-06-11T10:36:33.904Z,7.40
2018-06-11T10:39:02.129Z,7.27
2018-06-11T10:41:31.299Z,7.53
2018-06-11T10:43:59.771Z,7.73
2018-06-11T10:46:27.999Z,6.43
2018-06-11T10:48:56.224Z,7.20
2018-06-11T10:51:24.819Z,6.77
2018-06-11T10:53:53.215Z,7.10
2018-06-11T10:56:21.207Z,6.70
2018-06-11T10:58:49.422Z,6.97
2018-06-11T11:01:17.659Z,11.63
2018-06-11T11:03:45.945Z,7.07
2018-06-11T11:06:14.175Z,5.97
2018-06-11T11:08:42.385Z,5.27
2018-06-11T11:11:10.632Z,4.73
2018-06-11T11:13:39.510Z,4.67
2018-06-11T11:16:07.779Z,5.23
2018-06-11T11:18:36.003Z,4.07
2018-06-11T11:21:04.233Z,3.53
2018-06-11T11:23:32.499Z,3.10
2018-06-11T11:26:00.846Z,3.40
2018-06-11T11:28:29.087Z,2.90
2018-06-11T11:30:57.316Z,2.90
2018-06-11T11:33:25.534Z,2.50
2018-06-11T11:35:53.867Z,3.07
2018-06-11T11:38:22.152Z,3.23
2018-06-11T11:40:50.430Z,3.00
2018-06-11T11:43:18.651Z,3.43
2018-06-11T11:45:46.923Z,2.97
2018-06-11T11:48:16.394Z,3.40
2018-06-11T11:50:44.703Z,4.17
2018-06-11T11:53:12.914Z,4.27
2018-06-11T11:55:41.127Z,4.10
2018-06-11T11:58:09.673Z,4.53
2018-06-11T12:00:37.964Z,4.57
2018-06-11T12:03:06.210Z,4.43
2018-06-11T12:05:34.445Z,4.20
2018-06-11T12:08:02.664Z,4.80
2018-06-11T12:10:31.175Z,5.10
2018-06-11T12:12:59.402Z,5.20
2018-06-11T12:15:27.639Z,6.27
2018-06-11T12:17:55.890Z,5.67
2018-06-11T12:20:30.879Z,5.77
2018-06-11T12:22:59.118Z,7.00
2018-06-11T12:25:27.422Z,6.30
2018-06-11T12:27:55.633Z,6.63
2018-06-11T12:30:23.874Z,6.50
2018-06-11T12:32:52.167Z,6.20
2018-06-11T12:35:20.414Z,5.67
2018-06-11T12:37:48.631Z,6.07
2018-06-11T12:40:17.444Z,6.20
2018-06-11T12:42:45.779Z,5.33
2018-06-11T12:45:14.017Z,6.43
2018-06-11T12:47:42.222Z,6.40
2018-06-11T12:50:10.489Z,6.13
2018-06-11T12:52:38.949Z,6.23
2018-06-11T12:55:07.339Z,6.77
2018-06-11T12:57:35.579Z,6.13
2018-06-11T13:00:04.287Z,6.37
2018-06-11T13:02:32.511Z,6.40
2018-06-11T13:05:01.879Z,6.53
2018-06-11T13:07:30.147Z,5.27
2018-06-11T13:09:58.376Z,5.10
2018-06-11T13:12:26.603Z,5.13
2018-06-11T13:14:54.825Z,5.00
2018-06-11T13:17:23.027Z,5.00
2018-06-11T13:19:51.267Z,4.90
2018-06-11T13:22:19.496Z,4.93
2018-06-11T13:24:47.754Z,5.30
2018-06-11T13:27:16.094Z,4.50
2018-06-11T13:29:44.327Z,4.60
2018-06-11T13:32:12.592Z,4.20
2018-06-11T13:34:40.810Z,4.47
2018-06-11T13:37:09.769Z,4.23
2018-06-11T13:39:38.058Z,4.33
2018-06-11T13:42:06.285Z,4.47
2018-06-11T13:44:34.497Z,4.10
2018-06-11T13:47:02.720Z,4.60
2018-06-11T13:49:30.987Z,4.63
2018-06-11T13:51:59.247Z,4.57
2018-06-11T13:54:27.553Z,4.70
2018-06-11T13:56:55.808Z,4.60
2018-06-11T13:59:24.354Z,3.73
2018-06-11T14:01:52.695Z,4.60
2018-06-11T14:04:20.930Z,4.50
2018-06-11T14:06:49.163Z,4.77
2018-06-11T14:09:17.415Z,6.10
2018-06-11T14:11:45.737Z,5.30
2018-06-11T14:14:14.023Z,5.47
2018-06-11T14:16:42.300Z,6.03
2018-06-11T14:19:10.854Z,5.23
2018-06-11T14:21:39.134Z,5.77
2018-06-11T14:24:07.630Z,4.93
2018-06-11T14:26:35.861Z,5.87
2018-06-11T14:29:04.108Z,5.50
2018-06-11T14:31:32.386Z,4.83
2018-06-11T14:34:00.996Z,5.43
2018-06-11T14:36:29.628Z,5.07
2018-06-11T14:38:57.939Z,6.17
2018-06-11T14:41:27.219Z,6.87
2018-06-11T14:43:55.477Z,7.03
2018-06-11T14:46:23.854Z,7.13
2018-06-11T14:48:52.251Z,9.03
2018-06-11T14:51:20.493Z,8.57
2018-06-11T14:53:49.343Z,8.50
2018-06-11T14:56:17.905Z,9.43
2018-06-11T14:58:46.350Z,8.13
2018-06-11T15:01:14.649Z,7.63
2018-06-11T15:03:42.696Z,8.23
2018-06-11T15:06:10.923Z,7.87
2018-06-11T15:08:39.230Z,8.37
2018-06-11T15:11:07.590Z,9.07
2018-06-11T15:13:35.921Z,9.27
2018-06-11T15:16:04.200Z,10.20
2018-06-11T15:18:32.798Z,8.67
2018-06-11T15:21:01.346Z,8.47
2018-06-11T15:23:30.652Z,8.97
2018-06-11T15:25:58.967Z,8.90
2018-06-11T15:28:27.230Z,9.67
2018-06-11T15:30:55.584Z,9.13
2018-06-11T15:33:24.191Z,10.00
2018-06-11T15:35:52.870Z,9.00
2018-06-11T15:38:21.239Z,9.30
2018-06-11T15:40:49.611Z,9.33
2018-06-11T15:43:17.832Z,9.17
2018-06-11T15:45:46.194Z,9.00
2018-06-11T15:48:14.425Z,9.10
2018-06-11T15:50:42.756Z,9.83
2018-06-11T15:53:11.031Z,9.60
2018-06-11T15:55:39.382Z,10.07
2018-06-11T15:58:08.548Z,9.70
2018-06-11T16:00:36.842Z,9.00
2018-06-11T16:03:05.015Z,9.67
2018-06-11T16:05:33.289Z,9.43
2018-06-11T16:08:01.766Z,12.57
2018-06-11T16:10:29.994Z,10.73
2018-06-11T16:12:57.977Z,8.80
2018-06-11T16:15:26.192Z,9.87
2018-06-11T16:17:54.492Z,10.97
2018-06-11T16:20:22.978Z,10.03
2018-06-11T16:22:51.247Z,10.03
2018-06-11T16:25:19.483Z,9.70
2018-06-11T16:27:47.735Z,9.43
2018-06-11T16:30:16.642Z,10.17
2018-06-11T16:32:45.462Z,9.93
2018-06-11T16:35:13.722Z,10.13
2018-06-11T16:37:42.590Z,10.70
2018-06-11T16:40:10.823Z,11.97
2018-06-11T16:42:39.210Z,11.40
2018-06-11T16:45:08.220Z,12.60
2018-06-11T16:47:36.468Z,13.07
2018-06-11T16:50:04.707Z,13.10
2018-06-11T16:52:32.935Z,12.50
2018-06-11T16:55:01.337Z,12.90
2018-06-11T16:57:29.345Z,14.00
2018-06-11T16:59:57.586Z,16.00
2018-06-11T17:02:25.872Z,14.97
2018-06-11T17:04:54.979Z,14.77
2018-06-11T17:07:23.229Z,15.83
2018-06-11T17:09:51.523Z,15.67
2018-06-11T17:12:19.766Z,16.50
2018-06-11T17:14:48.027Z,17.30
2018-06-11T17:17:16.591Z,16.93
2018-06-11T17:19:44.901Z,19.37
2018-06-11T17:22:13.256Z,18.23
2018-06-11T17:24:41.499Z,16.50
2018-06-11T17:27:09.920Z,16.10
2018-06-11T17:29:38.245Z,17.07
2018-06-11T17:32:06.540Z,18.83
2018-06-11T17:34:34.790Z,18.07
2018-06-11T17:37:03.074Z,16.73
2018-06-11T17:39:32.388Z,18.20
2018-06-11T17:42:00.715Z,19.20
2018-06-11T17:44:28.961Z,18.47
2018-06-11T17:46:57.233Z,20.43
2018-06-11T17:49:25.511Z,17.27
2018-06-11T17:51:54.358Z,16.53
2018-06-11T17:54:22.783Z,17.97
2018-06-11T17:56:51.003Z,18.83
2018-06-11T17:59:19.270Z,17.80
2018-06-11T18:01:47.507Z,18.17
2018-06-11T18:04:16.648Z,19.63
2018-06-11T18:06:44.908Z,18.27
2018-06-11T18:09:13.235Z,18.17
2018-06-11T18:11:41.496Z,22.03
2018-06-11T18:14:09.850Z,22.00
2018-06-11T18:16:38.125Z,23.57
2018-06-11T18:19:06.401Z,23.20
2018-06-11T18:21:34.646Z,25.97
2018-06-11T18:24:03.030Z,27.17
2018-06-11T18:26:31.818Z,27.03
2018-06-11T18:29:00.163Z,26.90
2018-06-11T18:31:28.439Z,31.07
2018-06-11T18:33:56.767Z,28.23
2018-06-11T18:36:25.275Z,27.20
2018-06-11T18:38:53.714Z,28.50
2018-06-11T18:41:22.009Z,28.40
2018-06-11T18:43:50.540Z,27.77
2018-06-11T18:46:18.534Z,28.53
2018-06-11T18:48:47.306Z,28.00
2018-06-11T18:51:15.723Z,29.23
2018-06-11T18:53:43.962Z,33.23
2018-06-11T18:56:12.322Z,27.53
2018-06-11T18:58:40.340Z,23.17
2018-06-11T19:01:08.685Z,22.00
2018-06-11T19:03:36.991Z,19.87
2018-06-11T19:06:05.303Z,16.77
2018-06-11T19:08:33.563Z,18.13
2018-06-11T19:11:02.447Z,18.63
2018-06-11T19:13:31.562Z,10.93
2018-06-11T19:16:00.021Z,15.00
2018-06-11T19:18:28.387Z,18.87
2018-06-11T19:20:56.695Z,16.93
2018-06-11T19:23:25.091Z,20.37
2018-06-11T19:25:54.022Z,20.00
2018-06-11T19:28:25.156Z,19.63
2018-06-11T19:30:54.073Z,21.07
2018-06-11T19:33:22.379Z,17.87
2018-06-11T19:35:50.621Z,16.50
2018-06-11T19:38:19.098Z,20.60
2018-06-11T19:40:47.560Z,18.40
2018-06-11T19:43:16.509Z,18.80
2018-06-11T19:45:45.143Z,17.40
2018-06-11T19:48:13.405Z,17.17
2018-06-11T19:50:41.668Z,16.00
2018-06-11T19:53:10.513Z,16.30
2018-06-11T19:55:38.836Z,15.10
2018-06-11T19:58:07.772Z,13.20
2018-06-11T20:00:36.308Z,15.77
2018-06-11T20:03:04.592Z,14.77
2018-06-11T20:05:34.130Z,15.83
2018-06-11T20:08:03.033Z,13.57
2018-06-11T20:10:31.622Z,14.90
2018-06-11T20:12:59.918Z,15.50
2018-06-11T20:15:28.374Z,15.40
2018-06-11T20:17:56.670Z,13.80
2018-06-11T20:20:26.377Z,16.50
2018-06-11T20:22:54.655Z,13.43
2018-06-11T20:25:22.930Z,9.73
2018-06-11T20:27:51.218Z,10.50
2018-06-11T20:30:19.550Z,10.10
2018-06-11T20:32:47.831Z,11.63
2018-06-11T20:35:16.674Z,12.30
2018-06-11T20:37:45.028Z,15.43
2018-06-11T20:40:13.282Z,15.47
2018-06-11T20:42:41.568Z,15.77
2018-06-11T20:45:10.170Z,14.10
2018-06-11T20:47:38.739Z,13.93
2018-06-11T20:50:07.036Z,12.40
2018-06-11T20:52:35.322Z,13.03
2018-06-11T20:55:03.575Z,15.77
2018-06-11T20:57:32.303Z,14.73
2018-06-11T21:00:00.970Z,14.10
2018-06-11T21:02:29.217Z,14.37
2018-06-11T21:04:57.515Z,15.77
2018-06-11T21:07:26.639Z,12.37
2018-06-11T21:09:54.940Z,12.63
2018-06-11T21:12:23.787Z,14.53
2018-06-11T21:14:52.451Z,14.63
2018-06-11T21:17:20.727Z,13.10
2018-06-11T21:19:48.990Z,11.90
2018-06-11T21:22:17.784Z,12.40
2018-06-11T21:24:46.112Z,13.37
2018-06-11T21:27:14.378Z,12.10
2018-06-11T21:29:42.802Z,12.30
2018-06-11T21:32:11.044Z,12.27
2018-06-11T21:34:39.951Z,13.47
2018-06-11T21:37:08.551Z,11.73
2018-06-11T21:39:37.820Z,14.23
2018-06-11T21:42:06.063Z,12.90
2018-06-11T21:44:34.483Z,12.23
2018-06-11T21:47:02.831Z,12.67
2018-06-11T21:49:31.856Z,12.53
2018-06-11T21:52:00.254Z,11.80
2018-06-11T21:54:28.542Z,11.00
2018-06-11T21:56:56.831Z,10.27
2018-06-11T21:59:26.184Z,10.80
2018-06-11T22:01:55.150Z,10.17
2018-06-11T22:04:23.555Z,10.50
2018-06-11T22:06:51.854Z,10.30
2018-06-11T22:09:20.178Z,10.30
2018-06-11T22:11:48.504Z,10.73
2018-06-11T22:14:17.503Z,10.37
2018-06-11T22:16:46.458Z,10.27
2018-06-11T22:19:14.780Z,10.80
2018-06-11T22:21:43.164Z,11.60
2018-06-11T22:24:11.467Z,11.57
2018-06-11T22:26:40.797Z,11.83
2018-06-11T22:29:10.163Z,11.23
2018-06-11T22:31:38.719Z,11.47
2018-06-11T22:34:06.985Z,12.83
2018-06-11T22:36:35.400Z,13.37
2018-06-11T22:39:05.528Z,10.43
2018-06-11T22:41:33.847Z,10.73
2018-06-11T22:44:02.351Z,9.93
2018-06-11T22:46:31.234Z,11.00
2018-06-11T22:48:59.505Z,10.23
2018-06-11T22:51:27.742Z,10.00
2018-06-11T22:53:55.995Z,10.40
2018-06-11T22:56:24.829Z,10.10
2018-06-11T22:58:53.338Z,11.67
2018-06-11T23:01:21.623Z,10.87
2018-06-11T23:03:49.850Z,10.53
2018-06-11T23:06:18.165Z,10.53
2018-06-11T23:08:47.420Z,11.30
2018-06-11T23:11:16.483Z,11.27
2018-06-11T23:13:45.206Z,9.73
2018-06-11T23:16:13.503Z,10.40
2018-06-11T23:18:41.786Z,9.17
2018-06-11T23:21:10.170Z,9.80
2018-06-11T23:23:38.463Z,11.03
2018-06-11T23:26:06.751Z,10.60
2018-06-11T23:28:35.003Z,11.50
2018-06-11T23:31:03.240Z,10.50
2018-06-11T23:33:32.482Z,10.23
2018-06-11T23:36:01.071Z,9.53
2018-06-11T23:38:29.320Z,9.90
2018-06-11T23:40:57.566Z,10.40
2018-06-11T23:43:25.807Z,10.63
2018-06-11T23:45:54.200Z,10.13
2018-06-11T23:48:22.525Z,9.73
2018-06-11T23:50:50.856Z,9.93
2018-06-11T23:53:19.123Z,10.53
2018-06-11T23:55:47.674Z,11.30
2018-06-11T23:58:15.962Z,10.53
